KTCM/TCM METAR and TAF weather

Enter ICAO airport designator
Station Type Date Time Source
KTCM METAR 2019/06/26 18:58 UTC NOAA

KTCM 261858Z AUTO 30006KT 10SM BKN090 19/14 A2988 RMK AO2 SLP122 T01930135 CHINO RWY34 $


Station Type Date Time Source
KTCM Decoded METAR 2019/06/26 18:58 UTC NOAA

Tacoma / McChord Air Force Base, WA, United States (KTCM) 47-09N 122-29W 87M
Jun 26, 2019 - 02:58 PM EDT / 2019.06.26 1858 UTC
Wind: from the WNW (300 degrees) at 7 MPH (6 KT):0
Visibility: 10 mile(s):0
Sky conditions: mostly cloudy
Temperature: 66.7 F (19.3 C)
Dew Point: 56.3 F (13.5 C)
Relative Humidity: 69%
Pressure (altimeter): 29.88 in. Hg (1011 hPa)
ob: KTCM 261858Z AUTO 30006KT 10SM BKN090 19/14 A2988 RMK AO2 SLP122 T01930135 CHINO RWY34
cycle: 19

Station Type Date Time Source
KTCM TAF 2019/06/26 13:08 UTC NOAA

TAF KTCM 261301Z 2613/2719 18006KT 9999 BKN030 QNH2989INS
BECMG 2622/2623 22009KT 8000 -SHRA OVC030 QNH2976INS
BECMG 2708/2709 21006KT 9999 NSW BKN012 QNH2979INS TX22/2623Z TN10/2712Z

Example: see airport list